Time;durP1;ratioP1;P1;durP2;ratioP2;P2;SDS_P1;SDS_P2;PMS_P1;PMS_P2;Temp;Humidity;BMP_temperature;BMP_pressure;BME280_temperature;BME280_humidity;BME280_pressure;Samples;Min_cycle;Max_cycle;Signal;HPM_P1;HPM_P2
2023/06/29 00:00:22;;;;;;;19.03;13.20;;;15.10;99.90;14.60;100175;;;;576127;244;24065;-81
2023/06/29 00:02:49;;;;;;;17.80;12.47;;;15.10;99.90;14.60;100175;;;;584203;244;24082;-77
2023/06/29 00:05:21;;;;;;;18.13;12.93;;;15.10;99.90;14.70;100178;;;;574651;243;24097;-80
2023/06/29 00:07:45;;;;;;;22.17;14.13;;;15.20;99.90;14.60;100178;;;;576018;242;24079;-83
2023/06/29 00:10:13;;;;;;;19.67;15.30;;;15.20;99.90;14.60;100170;;;;574509;246;24092;-80
2023/06/29 00:12:41;;;;;;;14.97;12.27;;;15.20;99.90;14.70;100175;;;;576816;243;24042;-80
2023/06/29 00:15:12;;;;;;;19.17;13.80;;;15.20;99.90;14.70;100172;;;;582707;242;23991;-74
2023/06/29 00:17:37;;;;;;;18.13;13.83;;;15.30;99.90;14.70;100173;;;;578601;245;24116;-76
2023/06/29 00:20:09;;;;;;;16.97;13.23;;;15.30;99.90;14.70;100168;;;;581870;242;24041;-74
2023/06/29 00:22:33;;;;;;;15.87;13.13;;;15.30;99.90;14.70;100169;;;;597537;237;24167;-79
2023/06/29 00:25:02;;;;;;;14.57;11.67;;;15.30;99.90;14.70;100169;;;;576814;244;24105;-79
2023/06/29 00:27:29;;;;;;;15.07;12.53;;;15.30;99.90;14.70;100164;;;;579426;242;24096;-81
2023/06/29 00:29:57;;;;;;;14.10;12.33;;;15.20;99.90;14.60;100171;;;;585902;241;24045;-79
2023/06/29 00:32:25;;;;;;;16.23;11.53;;;15.20;99.90;14.70;100169;;;;576954;244;24102;-74
2023/06/29 00:34:54;;;;;;;19.03;12.87;;;15.20;99.90;14.60;100169;;;;576580;243;24139;-79
2023/06/29 00:37:22;;;;;;;14.67;11.80;;;15.20;99.90;14.60;100161;;;;577329;243;24127;-80
2023/06/29 00:39:50;;;;;;;14.20;11.30;;;15.20;99.90;14.60;100167;;;;583378;239;24082;-81
2023/06/29 00:42:19;;;;;;;19.30;11.20;;;15.20;99.90;14.60;100160;;;;576925;242;24121;-75
2023/06/29 00:44:48;;;;;;;16.57;12.37;;;15.20;99.90;14.60;100159;;;;579526;241;24131;-79
2023/06/29 00:47:15;;;;;;;16.47;13.47;;;15.20;99.90;14.60;100161;;;;576881;242;24062;-81
2023/06/29 00:49:46;;;;;;;18.30;10.77;;;15.20;99.90;14.60;100168;;;;573727;243;24042;-80
2023/06/29 00:52:12;;;;;;;19.17;12.13;;;15.20;99.90;14.60;100162;;;;577296;243;24111;-78
2023/06/29 00:54:43;;;;;;;16.90;11.93;;;15.20;99.90;14.60;100171;;;;584898;244;24153;-80
2023/06/29 00:57:12;;;;;;;17.10;12.50;;;15.20;99.90;14.60;100161;;;;576661;243;24166;-78
2023/06/29 00:59:39;;;;;;;15.13;11.80;;;15.20;99.90;14.60;100163;;;;579311;242;24091;-80
2023/06/29 01:02:04;;;;;;;13.07;11.60;;;15.20;99.90;14.60;100164;;;;584961;242;24129;-79
2023/06/29 01:04:33;;;;;;;17.40;12.00;;;15.20;99.90;14.60;100157;;;;583298;244;24198;-77
2023/06/29 01:07:21;;;;;;;15.03;11.40;;;15.20;99.90;14.60;100160;;;;576280;244;24091;-79
2023/06/29 01:09:49;;;;;;;16.27;11.77;;;15.10;99.90;14.50;100157;;;;587426;241;24092;-78
2023/06/29 01:12:17;;;;;;;14.47;11.43;;;15.10;99.90;14.50;100160;;;;577405;241;24131;-80
2023/06/29 01:14:45;;;;;;;13.23;9.93;;;15.10;99.90;14.50;100158;;;;586535;241;24112;-77
2023/06/29 01:17:13;;;;;;;17.10;11.97;;;15.10;99.90;14.50;100162;;;;585121;241;24035;-77
2023/06/29 01:19:43;;;;;;;13.63;10.97;;;15.10;99.90;14.50;100162;;;;577836;243;24084;-80
2023/06/29 01:22:18;;;;;;;13.43;11.30;;;15.10;99.90;14.50;100157;;;;579156;242;24052;-80
2023/06/29 01:24:46;;;;;;;13.40;10.07;;;15.00;99.90;14.50;100159;;;;579118;240;24102;-79
2023/06/29 01:27:15;;;;;;;13.00;10.50;;;15.00;99.90;14.40;100159;;;;578702;241;25166;-78
2023/06/29 01:29:42;;;;;;;12.40;11.10;;;15.00;99.90;14.50;100153;;;;588081;241;24047;-78
2023/06/29 01:32:10;;;;;;;12.57;9.30;;;15.00;99.90;14.50;100148;;;;581224;243;24074;-77
2023/06/29 01:34:38;;;;;;;12.17;10.57;;;15.00;99.90;14.50;100151;;;;592030;240;24046;-78
2023/06/29 01:37:14;;;;;;;14.30;11.00;;;15.00;99.90;14.40;100144;;;;571122;245;24232;-79
2023/06/29 01:39:48;;;;;;;13.07;10.87;;;15.00;99.90;14.40;100153;;;;585808;241;24096;-80
2023/06/29 01:42:16;;;;;;;12.77;11.27;;;15.00;99.90;14.40;100144;;;;576449;242;24055;-75
2023/06/29 01:44:44;;;;;;;15.70;11.03;;;15.00;99.90;14.40;100142;;;;587447;240;24080;-76
2023/06/29 01:47:12;;;;;;;15.80;10.77;;;15.00;99.90;14.40;100140;;;;587987;242;24069;-79
2023/06/29 01:49:43;;;;;;;14.07;10.20;;;14.90;99.90;14.40;100140;;;;587654;242;24081;-79
2023/06/29 01:52:09;;;;;;;14.63;11.50;;;15.00;99.90;14.40;100141;;;;577702;242;24101;-78
2023/06/29 01:54:36;;;;;;;13.97;11.27;;;14.90;99.90;14.30;100142;;;;576637;241;24062;-80
2023/06/29 01:57:07;;;;;;;14.23;11.67;;;14.90;99.90;14.30;100130;;;;577482;242;24087;-79
2023/06/29 01:59:35;;;;;;;13.97;10.77;;;14.90;99.90;14.30;100136;;;;586536;242;24095;-79
2023/06/29 02:02:07;;;;;;;15.33;10.83;;;14.90;99.90;14.30;100130;;;;583561;243;24156;-78
2023/06/29 02:04:34;;;;;;;13.67;10.07;;;14.90;99.90;14.30;100131;;;;588660;242;24114;-77
2023/06/29 02:07:00;;;;;;;12.13;10.90;;;14.80;99.90;14.20;100129;;;;583973;241;24037;-77
2023/06/29 02:09:30;;;;;;;12.90;10.50;;;14.80;99.90;14.20;100129;;;;583966;242;24119;-75
2023/06/29 02:11:55;;;;;;;14.03;11.07;;;14.80;99.90;14.20;100137;;;;566975;246;24132;-79
2023/06/29 02:14:23;;;;;;;14.17;11.20;;;14.80;99.90;14.20;100136;;;;578236;243;24090;-75
2023/06/29 02:16:51;;;;;;;18.60;11.87;;;14.80;99.90;14.20;100129;;;;579914;242;24072;-74
2023/06/29 02:19:19;;;;;;;12.37;9.93;;;14.80;99.90;14.20;100136;;;;575170;244;24130;-79
2023/06/29 02:21:47;;;;;;;12.57;11.20;;;14.70;99.90;14.20;100131;;;;590232;242;24092;-74
2023/06/29 02:24:15;;;;;;;11.33;10.10;;;14.80;99.90;14.20;100129;;;;579053;241;24115;-74
2023/06/29 02:26:43;;;;;;;12.87;10.43;;;14.80;99.90;14.20;100124;;;;579720;243;24083;-76
2023/06/29 02:29:11;;;;;;;13.20;11.43;;;14.80;99.90;14.20;100126;;;;579934;242;24103;-76
2023/06/29 02:31:42;;;;;;;10.23;8.87;;;14.80;99.90;14.20;100129;;;;579004;242;24070;-75
2023/06/29 02:34:07;;;;;;;14.30;11.00;;;14.80;99.90;14.30;100129;;;;581462;242;24106;-75
2023/06/29 02:36:36;;;;;;;11.10;9.90;;;14.80;99.90;14.30;100128;;;;580255;241;24178;-74
2023/06/29 02:39:04;;;;;;;13.40;10.93;;;14.80;99.90;14.30;100130;;;;582484;241;24112;-76
2023/06/29 02:41:33;;;;;;;12.37;9.60;;;14.90;99.90;14.30;100136;;;;595188;237;24054;-75
2023/06/29 02:44:02;;;;;;;13.40;9.30;;;14.90;99.90;14.40;100143;;;;596202;237;24067;-77
2023/06/29 02:46:30;;;;;;;14.30;11.40;;;14.90;99.90;14.40;100136;;;;596147;237;24118;-79
2023/06/29 02:48:58;;;;;;;14.07;10.67;;;14.90;99.90;14.40;100129;;;;583393;243;24086;-78
2023/06/29 02:51:26;;;;;;;15.87;13.03;;;15.00;99.90;14.40;100137;;;;577983;243;24164;-78
2023/06/29 02:53:55;;;;;;;14.77;11.20;;;15.00;99.90;14.40;100134;;;;582090;243;24076;-75
2023/06/29 02:56:24;;;;;;;13.73;10.97;;;15.00;99.90;14.50;100140;;;;581873;243;24143;-76
2023/06/29 02:58:52;;;;;;;20.23;12.63;;;15.10;99.90;14.50;100144;;;;595936;237;24095;-75
2023/06/29 03:01:20;;;;;;;15.27;11.03;;;15.00;99.90;14.60;100139;;;;596609;237;24067;-78
2023/06/29 03:03:48;;;;;;;16.40;12.83;;;15.10;99.90;14.60;100138;;;;596295;237;24055;-78
2023/06/29 03:06:16;;;;;;;13.93;11.83;;;15.10;99.90;14.60;100135;;;;596009;237;24043;-81
2023/06/29 03:08:44;;;;;;;14.50;10.80;;;15.20;99.90;14.70;100138;;;;605581;237;24012;-79
2023/06/29 03:11:12;;;;;;;15.17;12.23;;;15.20;99.90;14.80;100136;;;;591852;242;24118;-76
2023/06/29 03:13:40;;;;;;;15.90;11.63;;;15.30;99.90;14.80;100138;;;;587844;242;24106;-74
2023/06/29 03:16:09;;;;;;;15.90;11.63;;;15.40;99.90;15.10;100129;;;;570628;245;24169;-73
2023/06/29 03:18:36;;;;;;;13.90;11.87;;;15.60;99.90;15.60;100146;;;;580295;239;24131;-77
2023/06/29 03:21:04;;;;;;;19.43;11.60;;;16.00;99.90;16.10;100142;;;;579356;243;24132;-77
2023/06/29 03:23:32;;;;;;;15.47;11.83;;;16.50;99.90;16.70;100147;;;;584458;244;24118;-79
2023/06/29 03:26:00;;;;;;;15.37;11.83;;;17.10;99.90;17.20;100151;;;;584173;242;24110;-75
2023/06/29 03:28:28;;;;;;;12.17;10.70;;;18.10;99.90;17.70;100148;;;;584467;242;24111;-75
2023/06/29 03:31:01;;;;;;;13.87;10.03;;;18.60;99.90;18.10;100148;;;;584025;242;24135;-76
2023/06/29 03:33:26;;;;;;;11.47;10.17;;;19.00;99.90;18.40;100147;;;;585721;240;24108;-77
2023/06/29 03:35:54;;;;;;;13.40;8.73;;;19.30;99.90;18.80;100147;;;;583991;242;24058;-75
2023/06/29 03:38:27;;;;;;;10.10;9.00;;;19.80;99.90;19.30;100152;;;;584060;242;24085;-76
2023/06/29 03:40:52;;;;;;;11.17;8.17;;;20.20;99.90;19.80;100147;;;;592483;242;24127;-76
2023/06/29 03:43:20;;;;;;;9.37;8.50;;;20.20;99.90;20.20;100137;;;;584158;242;24123;-77
2023/06/29 03:45:47;;;;;;;10.60;8.33;;;20.70;99.90;20.60;100135;;;;585416;241;24047;-77
2023/06/29 03:48:15;;;;;;;7.37;6.67;;;21.10;99.90;21.00;100136;;;;585075;241;24117;-75
2023/06/29 03:50:43;;;;;;;8.90;8.00;;;21.50;99.90;21.50;100143;;;;584890;241;24048;-75
2023/06/29 03:53:11;;;;;;;7.67;6.93;;;22.00;99.90;21.90;100138;;;;586601;241;24130;-76
2023/06/29 03:55:43;;;;;;;8.50;7.33;;;22.30;99.90;22.20;100145;;;;584707;241;24094;-76
2023/06/29 03:58:07;;;;;;;9.87;7.23;;;22.70;99.90;22.70;100144;;;;593338;238;24109;-77
2023/06/29 04:00:35;;;;;;;8.50;6.80;;;23.20;99.90;23.30;100133;;;;584751;241;23192;-77
2023/06/29 04:03:03;;;;;;;7.20;6.60;;;23.80;99.90;23.60;100135;;;;584491;242;23113;-76
2023/06/29 04:05:32;;;;;;;7.53;6.73;;;24.40;99.90;23.80;100128;;;;584284;242;23106;-77
2023/06/29 04:08:04;;;;;;;11.13;6.77;;;24.80;99.90;24.20;100141;;;;586133;242;23055;-76
2023/06/29 04:10:34;;;;;;;7.33;6.00;;;24.70;99.90;24.30;100133;;;;586049;239;23094;-76
2023/06/29 04:13:02;;;;;;;10.67;7.03;;;24.90;99.90;24.40;100136;;;;585896;241;23063;-78
2023/06/29 04:15:27;;;;;;;6.53;6.03;;;25.00;99.90;24.60;100135;;;;584155;242;23088;-78
2023/06/29 04:17:58;;;;;;;6.40;5.80;;;25.30;99.90;25.20;100131;;;;584721;242;23076;-80
2023/06/29 04:20:23;;;;;;;6.20;5.53;;;25.70;99.90;25.50;100138;;;;567180;246;23140;-78
2023/06/29 04:22:51;;;;;;;10.07;5.53;;;26.10;99.90;25.50;100140;;;;571325;245;23087;-79
2023/06/29 04:25:19;;;;;;;6.40;5.83;;;26.20;99.90;25.40;100140;;;;581512;242;24085;-79
2023/06/29 04:27:47;;;;;;;11.20;6.60;;;26.20;99.90;25.50;100142;;;;582376;240;23085;-79
2023/06/29 04:30:17;;;;;;;8.63;5.97;;;26.20;99.90;25.50;100143;;;;572823;246;23117;-76
2023/06/29 04:32:43;;;;;;;5.93;5.37;;;26.20;99.90;25.60;100148;;;;584308;242;23107;-78
2023/06/29 04:35:11;;;;;;;8.10;5.90;;;26.30;99.90;26.10;100148;;;;573401;246;23114;-77
2023/06/29 04:37:42;;;;;;;5.37;4.87;;;26.80;99.90;26.70;100150;;;;593496;242;23087;-76
2023/06/29 04:40:12;;;;;;;5.40;4.75;;;27.70;99.90;26.90;100140;;;;573306;246;24172;-75
2023/06/29 04:42:46;;;;;;;4.60;4.20;;;28.00;99.90;27.20;100141;;;;593540;242;23143;-77
2023/06/29 04:45:17;;;;;;;5.80;4.47;;;28.00;99.90;27.80;100141;;;;573256;246;23145;-75
2023/06/29 04:47:45;;;;;;;6.37;5.07;;;28.50;99.90;28.10;100145;;;;582070;242;23144;-75
2023/06/29 04:50:13;;;;;;;5.53;4.35;;;28.90;99.90;28.20;100149;;;;567320;246;23146;-76
2023/06/29 04:52:37;;;;;;;4.93;4.22;;;29.10;99.10;28.70;100148;;;;581632;246;23124;-75
2023/06/29 04:55:05;;;;;;;4.65;4.12;;;29.60;98.50;29.60;100144;;;;582605;242;23082;-77
2023/06/29 04:57:36;;;;;;;6.20;4.25;;;30.40;96.40;30.20;100153;;;;585731;241;24128;-78
2023/06/29 05:00:01;;;;;;;4.72;4.20;;;31.00;93.80;30.60;100158;;;;573957;242;24112;-76
2023/06/29 05:02:31;;;;;;;9.10;4.05;;;31.50;92.00;30.80;100151;;;;587728;237;24070;-78
2023/06/29 05:04:56;;;;;;;7.05;3.92;;;31.80;90.90;31.40;100154;;;;596209;237;23077;-78
2023/06/29 05:07:24;;;;;;;7.18;3.90;;;32.30;88.50;31.60;100159;;;;596064;237;24109;-79
2023/06/29 05:09:52;;;;;;;5.47;3.35;;;32.60;85.20;31.80;100156;;;;595959;237;23131;-78
2023/06/29 05:12:21;;;;;;;5.75;3.50;;;33.10;81.60;32.20;100152;;;;596116;237;23099;-77
2023/06/29 05:14:49;;;;;;;7.37;3.37;;;33.10;81.50;32.20;100154;;;;605366;237;23044;-79
2023/06/29 05:17:20;;;;;;;3.85;3.53;;;33.20;79.00;32.80;100155;;;;595871;237;23035;-77
2023/06/29 05:19:45;;;;;;;6.32;4.20;;;33.60;77.50;33.30;100160;;;;590367;237;34968;-79
2023/06/29 05:22:13;;;;;;;4.50;3.85;;;34.10;75.50;33.70;100165;;;;595617;237;23055;-74
2023/06/29 05:24:43;;;;;;;5.12;3.62;;;34.50;74.60;34.20;100159;;;;595796;237;23044;-76
2023/06/29 05:27:08;;;;;;;4.62;3.25;;;35.00;71.60;34.80;100161;;;;595597;237;23038;-76
2023/06/29 05:29:39;;;;;;;3.40;3.20;;;35.60;69.80;35.50;100174;;;;595800;237;23052;-75
2023/06/29 05:32:10;;;;;;;6.10;3.60;;;36.20;67.50;36.30;100166;;;;604998;237;26232;-78
2023/06/29 05:34:36;;;;;;;4.85;3.30;;;36.70;63.30;35.80;100164;;;;595709;237;23064;-76
2023/06/29 05:37:04;;;;;;;6.30;2.92;;;36.70;63.30;34.60;100164;;;;595914;237;24102;-79
2023/06/29 05:39:31;;;;;;;3.37;3.08;;;35.70;64.90;33.90;100174;;;;595862;237;23097;-80
2023/06/29 05:42:00;;;;;;;5.78;3.65;;;33.70;68.20;32.70;100178;;;;595773;237;23152;-79
2023/06/29 05:44:28;;;;;;;4.85;3.10;;;33.70;67.50;31.60;100177;;;;595848;237;23081;-75
2023/06/29 05:46:56;;;;;;;5.05;3.28;;;32.60;70.30;30.60;100175;;;;595957;237;23096;-79
2023/06/29 05:49:24;;;;;;;3.17;2.87;;;31.40;72.40;29.60;100176;;;;596012;237;23140;-78
2023/06/29 05:51:52;;;;;;;4.97;2.92;;;30.40;74.50;28.60;100169;;;;605422;237;23050;-79
2023/06/29 05:54:20;;;;;;;4.90;3.15;;;29.40;77.50;27.90;100173;;;;595965;237;23082;-79
2023/06/29 05:56:48;;;;;;;7.25;3.28;;;28.50;81.00;27.20;100172;;;;596020;237;26206;-80
2023/06/29 05:59:16;;;;;;;4.00;3.37;;;27.90;83.40;26.90;100169;;;;595619;237;23050;-76
2023/06/29 06:01:43;;;;;;;5.60;3.25;;;27.40;86.00;26.70;100165;;;;595611;237;23070;-79
2023/06/29 06:04:11;;;;;;;5.55;3.25;;;27.10;87.60;26.40;100158;;;;605516;237;23035;-77
2023/06/29 06:06:39;;;;;;;9.95;3.20;;;26.90;89.00;25.90;100167;;;;595833;237;23064;-78
2023/06/29 06:09:07;;;;;;;7.90;3.20;;;26.50;90.50;25.60;100163;;;;597696;237;23038;-82
2023/06/29 06:11:35;;;;;;;3.93;2.80;;;26.10;91.70;25.40;100178;;;;589520;241;23093;-79
2023/06/29 06:14:03;;;;;;;4.80;3.00;;;25.90;93.00;25.30;100161;;;;582825;243;24141;-82
2023/06/29 06:16:31;;;;;;;3.53;3.17;;;25.70;93.50;25.20;100173;;;;586571;237;23088;-82
2023/06/29 06:18:59;;;;;;;3.50;3.20;;;25.60;94.50;25.30;100171;;;;593494;241;23107;-80
2023/06/29 06:21:28;;;;;;;3.53;3.27;;;25.60;95.30;25.30;100168;;;;584591;242;24128;-80
2023/06/29 06:24:00;;;;;;;3.97;3.60;;;25.60;95.30;25.40;100169;;;;581202;243;23070;-83
2023/06/29 06:26:24;;;;;;;10.97;2.73;;;25.70;95.90;25.60;100175;;;;579518;245;24046;-76
2023/06/29 06:28:52;;;;;;;3.90;3.20;;;25.90;95.70;25.60;100175;;;;586887;241;23051;-80
2023/06/29 06:31:19;;;;;;;7.17;3.30;;;26.00;95.30;25.50;100179;;;;586527;243;23065;-85
2023/06/29 06:33:50;;;;;;;2.77;2.57;;;25.90;95.70;25.40;100183;;;;589736;243;23087;-85
2023/06/29 06:36:15;;;;;;;5.10;3.07;;;25.80;95.70;25.10;100184;;;;586199;243;23122;-83
2023/06/29 06:38:43;;;;;;;3.80;2.90;;;25.60;96.20;24.70;100178;;;;580694;243;23077;-83
2023/06/29 06:41:11;;;;;;;2.93;2.77;;;25.30;96.90;24.60;100179;;;;585548;243;23114;-78
2023/06/29 06:43:40;;;;;;;3.40;3.17;;;24.90;98.00;24.40;100179;;;;585410;241;23143;-76
2023/06/29 06:46:08;;;;;;;2.93;2.43;;;24.80;98.00;24.40;100184;;;;591722;239;23058;-82
2023/06/29 06:48:36;;;;;;;4.30;3.17;;;24.80;98.40;24.60;100176;;;;588978;241;23041;-81
2023/06/29 06:51:04;;;;;;;5.13;2.97;;;25.00;98.30;24.80;100175;;;;580775;245;24178;-80
2023/06/29 06:53:31;;;;;;;5.60;3.00;;;25.20;97.90;25.00;100176;;;;575832;245;23091;-83
2023/06/29 06:56:03;;;;;;;4.00;2.93;;;25.40;97.40;25.30;100179;;;;580084;243;23140;-85
2023/06/29 06:58:27;;;;;;;3.00;2.60;;;25.70;97.10;25.60;100183;;;;572628;245;24069;-81
2023/06/29 07:00:55;;;;;;;2.80;2.50;;;25.90;96.70;26.00;100179;;;;580088;243;23090;-82
2023/06/29 07:03:24;;;;;;;8.07;2.97;;;26.30;96.00;26.30;100175;;;;568005;249;24202;-81
2023/06/29 07:05:55;;;;;;;13.40;2.80;;;26.80;94.90;26.50;100181;;;;581595;242;23027;-81
2023/06/29 07:08:23;;;;;;;4.30;2.80;;;26.80;94.90;26.80;100175;;;;569093;248;23117;-81
2023/06/29 07:10:51;;;;;;;3.30;2.45;;;27.10;94.70;27.10;100175;;;;587100;239;23094;-80
2023/06/29 07:13:16;;;;;;;4.73;2.97;;;27.50;93.90;27.10;100174;;;;590982;239;23027;-81
2023/06/29 07:15:43;;;;;;;5.53;2.75;;;27.50;93.10;27.00;100180;;;;577118;247;23150;-81
2023/06/29 07:18:11;;;;;;;2.43;2.23;;;27.50;93.10;27.00;100181;;;;582059;243;24071;-80
2023/06/29 07:20:42;;;;;;;4.35;2.58;;;27.40;93.60;27.10;100182;;;;594857;239;23041;-82
2023/06/29 07:23:14;;;;;;;4.75;2.50;;;27.50;92.80;27.30;100192;;;;593515;239;23054;-84
2023/06/29 07:25:42;;;;;;;3.35;2.37;;;27.70;92.60;27.60;100181;;;;595121;239;23048;-82
2023/06/29 07:28:10;;;;;;;3.20;2.83;;;28.20;90.90;27.80;100173;;;;581560;240;23043;-81
2023/06/29 07:30:40;;;;;;;3.58;2.67;;;28.20;90.90;28.20;100181;;;;572829;246;23074;-81
2023/06/29 07:33:13;;;;;;;6.85;3.00;;;28.90;90.00;28.60;100177;;;;576268;246;23210;-80
2023/06/29 07:35:38;;;;;;;8.95;2.95;;;28.90;90.00;29.00;100175;;;;575674;246;24079;-80
2023/06/29 07:38:06;;;;;;;4.07;2.30;;;29.30;87.00;29.00;100173;;;;576111;246;23068;-80
2023/06/29 07:40:35;;;;;;;2.20;2.00;;;29.40;85.70;28.80;100174;;;;575966;246;23107;-78
2023/06/29 07:43:03;;;;;;;5.18;2.55;;;29.30;83.90;28.70;100173;;;;576158;246;25182;-77
2023/06/29 07:45:30;;;;;;;5.97;2.60;;;29.10;84.50;29.10;100170;;;;576109;246;24238;-80
2023/06/29 07:47:58;;;;;;;2.87;2.05;;;29.40;84.20;29.40;100167;;;;576257;246;23118;-78
2023/06/29 07:50:26;;;;;;;10.30;2.25;;;29.70;81.70;29.80;100158;;;;575905;246;23068;-77
2023/06/29 07:52:54;;;;;;;5.57;2.10;;;30.10;80.10;30.40;100162;;;;575949;246;23091;-78
2023/06/29 07:55:22;;;;;;;2.72;2.10;;;30.60;78.70;31.90;100167;;;;575793;246;23067;-78
2023/06/29 07:57:50;;;;;;;4.70;2.55;;;32.00;76.60;33.60;100162;;;;575603;244;23100;-77
2023/06/29 08:00:21;;;;;;;4.45;2.15;;;33.60;71.50;34.70;100167;;;;575494;246;23071;-79
2023/06/29 08:02:46;;;;;;;4.95;1.95;;;35.00;67.00;35.50;100168;;;;574997;246;23071;-78
2023/06/29 08:05:15;;;;;;;3.20;2.17;;;36.10;60.60;35.50;100159;;;;575185;246;23079;-77
2023/06/29 08:07:43;;;;;;;6.43;2.40;;;36.10;59.60;35.50;100167;;;;575584;246;24123;-77
2023/06/29 08:10:12;;;;;;;3.50;2.45;;;36.00;58.70;35.50;100168;;;;575526;245;24231;-78
2023/06/29 08:12:41;;;;;;;2.37;2.17;;;36.60;58.20;36.50;100166;;;;575486;246;23117;-82
2023/06/29 08:15:09;;;;;;;7.07;2.53;;;36.60;58.20;37.50;100166;;;;575466;246;23116;-82
2023/06/29 08:17:37;;;;;;;6.75;2.80;;;37.70;56.20;38.00;100165;;;;575467;246;23115;-81
2023/06/29 08:20:08;;;;;;;8.73;2.00;;;38.40;53.90;38.20;100167;;;;575635;246;24089;-79
2023/06/29 08:22:33;;;;;;;2.12;1.90;;;38.60;52.30;38.30;100170;;;;575259;246;23111;-80
2023/06/29 08:25:00;;;;;;;3.78;1.83;;;38.70;51.90;38.50;100166;;;;565941;251;24141;-79
2023/06/29 08:27:28;;;;;;;6.75;1.90;;;39.00;50.70;38.80;100175;;;;565898;249;23119;-80
2023/06/29 08:29:57;;;;;;;2.30;2.10;;;39.50;49.10;39.20;100173;;;;566033;249;23121;-82
2023/06/29 08:32:26;;;;;;;3.58;2.22;;;39.80;48.60;39.50;100172;;;;567333;250;23111;-82
2023/06/29 08:34:54;;;;;;;2.55;1.92;;;39.80;48.50;40.10;100173;;;;566466;250;23099;-82
2023/06/29 08:37:22;;;;;;;2.53;1.85;;;40.40;48.20;40.30;100165;;;;566243;250;23104;-82
2023/06/29 08:39:49;;;;;;;15.40;2.55;;;40.80;46.70;40.30;100172;;;;566727;250;23107;-82
2023/06/29 08:42:21;;;;;;;2.80;2.20;;;40.90;46.80;40.30;100171;;;;566435;250;23125;-82
2023/06/29 08:44:48;;;;;;;14.40;2.55;;;40.90;46.90;40.40;100172;;;;567383;252;23107;-82
2023/06/29 08:47:13;;;;;;;2.35;1.75;;;40.90;46.90;41.60;100171;;;;566208;250;24219;-83
2023/06/29 08:49:44;;;;;;;5.47;2.20;;;41.70;46.00;42.90;100173;;;;566195;250;23110;-82
2023/06/29 08:52:12;;;;;;;1.80;1.70;;;43.10;44.00;43.70;100174;;;;566150;250;23110;-85
2023/06/29 08:54:43;;;;;;;4.45;1.62;;;43.90;42.80;44.10;100179;;;;566005;250;23087;-82
2023/06/29 08:57:11;;;;;;;10.38;2.42;;;44.60;40.90;43.80;100175;;;;565789;246;23153;-83
2023/06/29 08:59:40;;;;;;;4.68;2.00;;;44.90;40.30;44.30;100180;;;;565895;250;23102;-81
2023/06/29 09:02:07;;;;;;;1.80;1.60;;;44.90;40.30;44.20;100180;;;;573372;250;24138;-82
2023/06/29 09:04:36;;;;;;;3.87;1.62;;;45.00;39.40;44.20;100176;;;;569992;250;23146;-81
2023/06/29 09:07:06;;;;;;;3.15;1.90;;;44.90;39.50;43.20;100180;;;;570488;248;23115;-80
2023/06/29 09:09:34;;;;;;;5.37;2.10;;;44.20;39.80;41.80;100189;;;;568632;251;23091;-80
2023/06/29 09:12:01;;;;;;;3.03;1.80;;;43.00;41.20;40.90;100191;;;;558433;250;35274;-80
2023/06/29 09:14:31;;;;;;;6.47;1.70;;;42.10;41.30;39.70;100186;;;;568779;251;23094;-81
2023/06/29 09:17:02;;;;;;;9.90;2.17;;;39.90;43.50;38.70;100197;;;;563373;251;23136;-83
2023/06/29 09:19:27;;;;;;;3.50;1.77;;;39.00;44.30;37.90;100187;;;;567895;251;23125;-83
2023/06/29 09:21:58;;;;;;;4.60;1.80;;;39.00;44.30;38.30;100179;;;;563314;250;23084;-80
2023/06/29 09:24:23;;;;;;;7.00;1.75;;;38.80;45.20;39.30;100179;;;;565152;251;23145;-82
2023/06/29 09:26:50;;;;;;;2.75;1.62;;;39.60;44.60;39.90;100180;;;;569312;251;23098;-83
2023/06/29 09:29:18;;;;;;;1.58;1.58;;;40.40;43.40;39.70;100189;;;;565439;251;23101;-82
2023/06/29 09:32:02;;;;;;;2.30;1.80;;;40.30;43.80;40.20;100188;;;;563186;251;23096;-81
2023/06/29 09:34:26;;;;;;;5.82;2.03;;;40.70;44.60;41.10;100184;;;;565032;250;23238;-78
2023/06/29 09:36:54;;;;;;;3.00;1.55;;;41.50;43.70;40.70;100189;;;;565471;249;23115;-78
2023/06/29 09:39:25;;;;;;;4.22;1.40;;;41.50;41.90;39.50;100186;;;;568698;251;23152;-79
2023/06/29 09:41:50;;;;;;;2.83;1.60;;;40.50;41.80;38.90;100189;;;;562384;248;23106;-81
2023/06/29 09:44:21;;;;;;;5.07;2.00;;;39.80;42.50;38.80;100194;;;;567383;250;23116;-80
2023/06/29 09:46:54;;;;;;;2.67;1.90;;;39.40;43.30;39.10;100181;;;;566756;248;23160;-79
2023/06/29 09:49:22;;;;;;;4.18;2.10;;;39.60;43.90;39.00;100177;;;;567919;250;29604;-80
2023/06/29 09:51:50;;;;;;;2.95;1.70;;;39.60;44.40;39.30;100187;;;;564351;248;23139;-80
2023/06/29 09:54:19;;;;;;;1.75;1.60;;;39.80;44.70;39.50;100192;;;;565849;250;23102;-81
2023/06/29 09:56:46;;;;;;;1.80;1.70;;;40.10;44.00;39.10;100183;;;;564266;249;23109;-78
2023/06/29 09:59:14;;;;;;;7.37;2.03;;;39.80;44.30;39.00;100186;;;;569240;248;23135;-80
2023/06/29 10:01:42;;;;;;;3.97;2.85;;;39.70;44.50;39.30;100188;;;;563955;250;24136;-80
2023/06/29 10:04:10;;;;;;;28.08;3.72;;;40.00;43.80;39.70;100185;;;;568772;246;23077;-82
2023/06/29 10:06:43;;;;;;;5.22;1.70;;;40.30;43.00;40.00;100177;;;;579882;246;23082;-82
2023/06/29 10:09:14;;;;;;;10.48;1.77;;;40.60;42.30;40.50;100189;;;;576017;246;23070;-81
2023/06/29 10:11:43;;;;;;;8.77;1.75;;;42.30;42.30;41.80;100184;;;;576349;246;23071;-80
2023/06/29 10:14:11;;;;;;;18.65;2.40;;;42.30;42.30;43.00;100187;;;;576128;246;23105;-82
2023/06/29 10:16:43;;;;;;;2.30;2.10;;;43.50;41.30;43.70;100192;;;;576174;246;23076;-82
2023/06/29 10:19:19;;;;;;;3.40;1.42;;;44.40;39.40;43.50;100185;;;;576009;246;23058;-80
2023/06/29 10:21:47;;;;;;;6.72;2.05;;;44.30;39.50;43.10;100180;;;;576137;246;23075;-82
2023/06/29 10:24:16;;;;;;;4.82;1.80;;;43.80;39.60;42.80;100183;;;;575541;246;23090;-82
2023/06/29 10:26:44;;;;;;;6.72;2.62;;;43.70;40.40;42.70;100181;;;;575980;246;23099;-83
2023/06/29 10:29:16;;;;;;;6.70;1.80;;;44.00;40.70;43.00;100178;;;;574354;249;24150;-82
2023/06/29 10:31:50;;;;;;;13.62;2.03;;;43.90;40.00;42.90;100175;;;;563598;251;23100;-82
2023/06/29 10:34:18;;;;;;;3.28;1.40;;;44.00;39.10;41.70;100189;;;;565834;246;23064;-83
2023/06/29 10:36:46;;;;;;;8.55;1.85;;;43.20;39.20;40.90;100183;;;;576089;246;23099;-83
2023/06/29 10:39:43;;;;;;;3.40;1.80;;;41.50;41.70;40.20;100194;;;;574102;246;23100;-82
2023/06/29 10:42:22;;;;;;;6.95;2.35;;;41.50;41.60;39.10;100181;;;;576890;243;23164;-81
2023/06/29 10:44:50;;;;;;;11.75;2.40;;;40.20;42.70;38.30;100173;;;;561089;251;23102;-84
2023/06/29 10:47:28;;;;;;;13.48;2.17;;;38.10;45.90;37.50;100172;;;;566299;245;23103;-82
2023/06/29 10:54:31;;;;;;;23.35;4.53;;;37.20;47.00;35.20;100179;;;;592309;237;24079;-82
2023/06/29 10:57:02;;;;;;;4.25;1.80;;;35.40;48.40;33.70;100171;;;;550768;254;35399;-83
2023/06/29 10:59:36;;;;;;;3.30;3.00;;;34.10;50.20;32.80;100180;;;;563566;250;23126;-81
2023/06/29 11:02:03;;;;;;;3.85;2.10;;;33.10;52.20;32.00;100164;;;;573964;245;23110;-81
2023/06/29 11:04:31;;;;;;;3.92;2.20;;;32.20;53.40;31.30;100169;;;;573150;248;23121;-82
2023/06/29 11:07:06;;;;;;;5.65;1.80;;;31.50;54.40;30.80;100162;;;;567987;250;24209;-82
2023/06/29 11:09:34;;;;;;;15.93;3.03;;;31.00;55.50;30.50;100160;;;;568382;246;23153;-84
2023/06/29 11:14:42;;;;;;;1.83;1.73;;;30.30;57.90;29.70;100167;;;;538326;256;23162;-83
2023/06/29 11:17:10;;;;;;;14.95;2.67;;;29.90;58.30;29.20;100162;;;;577523;244;23039;-83